createdAt,value
2023-11-18T00:01:35.961Z,6.00
2023-11-18T00:04:04.152Z,8.20
2023-11-18T00:06:32.245Z,11.57
2023-11-18T00:09:00.687Z,5.07
2023-11-18T00:11:28.917Z,6.53
2023-11-18T00:13:57.105Z,6.93
2023-11-18T00:16:25.374Z,5.18
2023-11-18T00:18:54.680Z,6.70
2023-11-18T00:21:26.081Z,6.43
2023-11-18T00:23:54.349Z,6.80
2023-11-18T00:26:22.833Z,4.20
2023-11-18T00:28:58.498Z,7.07
2023-11-18T00:31:26.672Z,7.10
2023-11-18T00:33:54.997Z,4.45
2023-11-18T00:36:23.585Z,4.22
2023-11-18T00:38:51.841Z,5.13
2023-11-18T00:41:20.023Z,12.32
2023-11-18T00:43:48.286Z,5.47
2023-11-18T00:46:16.762Z,6.07
2023-11-18T00:48:44.857Z,5.15
2023-11-18T00:51:13.553Z,6.68
2023-11-18T00:53:41.715Z,6.75
2023-11-18T00:56:19.387Z,4.97
2023-11-18T00:58:47.587Z,4.97
2023-11-18T01:01:19.041Z,7.57
2023-11-18T01:03:47.690Z,5.55
2023-11-18T01:06:18.596Z,2.30
2023-11-18T01:08:47.471Z,3.83
2023-11-18T01:11:23.442Z,5.35
2023-11-18T01:13:52.006Z,4.80
2023-11-18T01:16:21.040Z,5.97
2023-11-18T01:18:49.749Z,3.80
2023-11-18T01:21:18.654Z,2.88
2023-11-18T01:23:46.887Z,3.90
2023-11-18T01:26:16.191Z,5.85
2023-11-18T01:28:46.156Z,6.57
2023-11-18T01:31:16.615Z,8.88
2023-11-18T01:33:46.392Z,3.75
2023-11-18T01:36:14.579Z,6.82
2023-11-18T01:38:42.779Z,5.20
2023-11-18T01:41:11.021Z,5.47
2023-11-18T01:43:41.186Z,5.25
2023-11-18T01:46:11.719Z,6.30
2023-11-18T01:48:41.120Z,4.72
2023-11-18T01:51:13.586Z,3.33
2023-11-18T01:53:43.572Z,3.53
2023-11-18T01:56:12.454Z,3.13
2023-11-18T01:58:42.084Z,2.10
2023-11-18T02:01:11.371Z,1.98
2023-11-18T02:03:41.898Z,4.60
2023-11-18T02:06:11.815Z,3.28
2023-11-18T02:08:40.039Z,2.25
2023-11-18T02:11:51.065Z,4.22
2023-11-18T02:14:21.385Z,2.30
2023-11-18T02:16:54.503Z,3.25
2023-11-18T02:21:55.567Z,4.55
2023-11-18T02:24:32.316Z,3.47
2023-11-18T02:27:01.614Z,4.07
2023-11-18T02:29:36.949Z,7.25
2023-11-18T02:32:16.787Z,3.38
2023-11-18T02:35:14.407Z,3.90
2023-11-18T02:37:48.401Z,6.28
2023-11-18T02:40:31.771Z,8.93
2023-11-18T02:45:30.080Z,3.65
2023-11-18T02:47:58.708Z,3.25
2023-11-18T02:50:28.575Z,4.00
2023-11-18T02:52:57.892Z,2.65
2023-11-18T02:55:27.172Z,2.95
2023-11-18T02:57:55.440Z,4.30
2023-11-18T03:00:23.746Z,3.67
2023-11-18T03:02:53.734Z,3.20
2023-11-18T03:05:22.769Z,2.92
2023-11-18T03:07:52.977Z,2.47
2023-11-18T03:10:24.121Z,2.88
2023-11-18T03:12:54.164Z,4.03
2023-11-18T03:15:24.880Z,4.93
2023-11-18T03:17:53.985Z,4.40
2023-11-18T03:20:24.750Z,3.67
2023-11-18T03:22:54.148Z,5.47
2023-11-18T03:25:23.383Z,3.85
2023-11-18T03:27:51.955Z,2.92
2023-11-18T03:30:20.273Z,2.67
2023-11-18T03:32:48.581Z,5.78
2023-11-18T03:35:16.897Z,2.17
2023-11-18T03:37:45.366Z,5.68
2023-11-18T03:40:15.504Z,3.92
2023-11-18T03:42:44.412Z,2.97
2023-11-18T03:45:12.703Z,4.05
2023-11-18T03:47:41.047Z,2.40
2023-11-18T03:50:10.219Z,3.55
2023-11-18T03:52:41.621Z,3.95
2023-11-18T03:55:10.761Z,2.88
2023-11-18T03:57:38.936Z,2.97
2023-11-18T04:00:07.789Z,3.78
2023-11-18T04:02:41.263Z,5.38
2023-11-18T04:05:10.041Z,3.78
2023-11-18T04:07:38.247Z,3.35
2023-11-18T04:10:07.912Z,4.47
2023-11-18T04:12:36.139Z,7.45
2023-11-18T04:15:05.832Z,4.18
2023-11-18T04:17:35.514Z,3.47
2023-11-18T04:20:06.451Z,4.38
2023-11-18T04:22:34.650Z,4.22
2023-11-18T04:25:02.752Z,4.25
2023-11-18T04:27:31.004Z,4.43
2023-11-18T04:29:59.131Z,2.42
2023-11-18T04:32:28.253Z,4.57
2023-11-18T04:34:56.498Z,2.90
2023-11-18T04:37:27.678Z,3.70
2023-11-18T04:39:56.455Z,3.28
2023-11-18T04:42:24.560Z,3.60
2023-11-18T04:44:53.224Z,2.20
2023-11-18T04:47:21.357Z,3.42
2023-11-18T04:49:49.815Z,3.15
2023-11-18T04:52:18.008Z,2.20
2023-11-18T04:54:49.216Z,1.80
2023-11-18T04:57:18.154Z,3.47
2023-11-18T04:59:46.347Z,2.38
2023-11-18T05:02:14.600Z,3.40
2023-11-18T05:04:42.826Z,1.80
2023-11-18T05:07:10.952Z,4.80
2023-11-18T05:09:39.180Z,3.67
2023-11-18T05:12:08.055Z,5.60
2023-11-18T05:14:36.838Z,3.03
2023-11-18T05:17:07.876Z,4.65
2023-11-18T05:19:36.209Z,8.65
2023-11-18T05:22:05.773Z,5.13
2023-11-18T05:24:33.950Z,7.25
2023-11-18T05:27:02.891Z,6.07
2023-11-18T05:29:31.624Z,4.47
2023-11-18T05:31:59.789Z,5.25
2023-11-18T05:34:30.411Z,3.22
2023-11-18T05:37:00.432Z,10.55
2023-11-18T05:39:31.980Z,5.07
2023-11-18T05:42:00.795Z,3.55
2023-11-18T05:44:31.957Z,3.38
2023-11-18T05:47:00.477Z,5.13
2023-11-18T05:49:28.693Z,5.43
2023-11-18T05:51:57.445Z,3.53
2023-11-18T05:54:25.682Z,7.55
2023-11-18T05:57:00.042Z,5.57
2023-11-18T05:59:28.696Z,7.90
2023-11-18T06:01:58.164Z,5.93
2023-11-18T06:04:29.149Z,8.00
2023-11-18T06:06:57.893Z,7.25
2023-11-18T06:09:26.856Z,3.55
2023-11-18T06:11:55.978Z,3.85
2023-11-18T06:14:24.042Z,7.45
2023-11-18T06:16:53.208Z,3.75
2023-11-18T06:19:22.106Z,6.35
2023-11-18T06:21:50.986Z,7.70
2023-11-18T06:24:19.979Z,5.18
2023-11-18T06:26:50.518Z,4.18
2023-11-18T06:29:18.665Z,4.50
2023-11-18T06:31:47.179Z,6.25
2023-11-18T06:34:15.306Z,4.03
2023-11-18T06:36:43.392Z,5.32
2023-11-18T06:39:14.170Z,3.13
2023-11-18T06:41:49.607Z,5.05
2023-11-18T06:44:25.060Z,4.30
2023-11-18T06:46:53.425Z,8.18
2023-11-18T06:49:21.714Z,3.08
2023-11-18T06:51:49.809Z,5.40
2023-11-18T06:54:18.499Z,5.85
2023-11-18T06:56:46.863Z,2.65
2023-11-18T06:59:16.755Z,4.03
2023-11-18T07:01:46.514Z,5.30
2023-11-18T07:04:16.354Z,3.97
2023-11-18T07:06:45.944Z,7.35
2023-11-18T07:09:18.256Z,9.23
2023-11-18T07:11:48.189Z,6.97
2023-11-18T07:14:17.180Z,5.18
2023-11-18T07:16:46.092Z,4.28
2023-11-18T07:19:24.662Z,3.80
2023-11-18T07:21:53.667Z,2.97
2023-11-18T07:24:22.388Z,15.52
2023-11-18T07:26:52.350Z,11.18
2023-11-18T07:29:20.791Z,17.88
2023-11-18T07:31:50.392Z,10.73
2023-11-18T07:34:18.663Z,10.07
2023-11-18T07:36:48.491Z,9.32
2023-11-18T07:39:17.407Z,11.02
2023-11-18T07:41:45.808Z,12.98
2023-11-18T07:44:14.362Z,10.93
2023-11-18T07:46:44.065Z,12.10
2023-11-18T07:49:12.871Z,8.32
2023-11-18T07:51:43.205Z,8.07
2023-11-18T07:54:11.581Z,8.77
2023-11-18T07:56:42.140Z,7.10
2023-11-18T07:59:10.336Z,7.47
2023-11-18T08:01:41.738Z,9.52
2023-11-18T08:04:09.958Z,7.50
2023-11-18T08:06:38.259Z,12.18
2023-11-18T08:09:11.577Z,11.05
2023-11-18T08:14:10.489Z,10.60
2023-11-18T08:16:38.855Z,10.63
2023-11-18T08:19:09.231Z,15.10
2023-11-18T08:21:39.107Z,16.60
2023-11-18T08:24:09.352Z,10.50
2023-11-18T08:26:39.960Z,8.82
2023-11-18T08:29:09.340Z,9.05
2023-11-18T08:31:40.773Z,9.70
2023-11-18T08:34:11.534Z,11.52
2023-11-18T08:36:39.723Z,10.23
2023-11-18T08:39:12.477Z,13.73
2023-11-18T08:41:40.875Z,7.47
2023-11-18T08:44:22.001Z,7.80
2023-11-18T08:49:24.759Z,7.57
2023-11-18T08:51:57.848Z,5.20
2023-11-18T08:54:39.097Z,5.60
2023-11-18T08:57:24.470Z,11.38
2023-11-18T08:59:53.271Z,8.82
2023-11-18T09:02:24.731Z,28.40
2023-11-18T09:04:56.587Z,31.05
2023-11-18T09:07:25.518Z,20.13
2023-11-18T09:09:53.713Z,17.42
2023-11-18T09:12:21.896Z,13.73
2023-11-18T09:14:53.012Z,18.20
2023-11-18T09:17:23.769Z,31.70
2023-11-18T09:19:53.951Z,52.05
2023-11-18T09:22:22.268Z,31.35
2023-11-18T09:24:51.939Z,16.48
2023-11-18T09:27:20.032Z,6.90
2023-11-18T09:29:48.515Z,6.65
2023-11-18T09:32:16.704Z,8.18
2023-11-18T09:34:46.783Z,7.60
2023-11-18T09:37:16.225Z,7.40
2023-11-18T09:39:46.833Z,6.22
2023-11-18T09:42:20.064Z,3.92
2023-11-18T09:44:49.473Z,7.20
2023-11-18T09:47:25.832Z,4.45
2023-11-18T09:49:58.418Z,7.05
2023-11-18T09:52:32.918Z,5.93
2023-11-18T09:55:05.699Z,4.30
2023-11-18T09:57:42.376Z,7.60
2023-11-18T10:00:24.459Z,6.93
2023-11-18T10:02:54.142Z,7.32
2023-11-18T10:05:24.267Z,11.50
2023-11-18T10:07:52.768Z,10.93
2023-11-18T10:10:25.980Z,10.00
2023-11-18T10:12:58.888Z,14.68
2023-11-18T10:15:28.518Z,12.95
2023-11-18T10:18:00.992Z,15.10
2023-11-18T10:20:46.952Z,12.23
2023-11-18T10:23:22.684Z,12.57
2023-11-18T10:25:54.164Z,10.75
2023-11-18T10:28:29.385Z,11.32
2023-11-18T10:31:16.524Z,13.05
2023-11-18T10:33:45.023Z,13.13
2023-11-18T10:36:24.244Z,12.93
2023-11-18T10:38:56.778Z,11.40
2023-11-18T10:41:25.434Z,9.98
2023-11-18T10:44:15.530Z,10.35
2023-11-18T10:46:54.350Z,11.07
2023-11-18T10:49:23.474Z,11.15
2023-11-18T10:51:53.122Z,13.05
2023-11-18T10:54:22.230Z,9.85
2023-11-18T10:56:51.157Z,11.55
2023-11-18T10:59:19.958Z,9.80
2023-11-18T11:01:50.722Z,12.55
2023-11-18T11:04:23.607Z,12.02
2023-11-18T11:06:57.369Z,13.23
2023-11-18T11:09:29.925Z,17.15
2023-11-18T11:12:05.587Z,18.40
2023-11-18T11:14:44.648Z,15.90
2023-11-18T11:17:26.472Z,21.63
2023-11-18T11:20:18.828Z,20.00
2023-11-18T11:23:21.257Z,21.42
2023-11-18T11:26:01.534Z,17.40
2023-11-18T11:28:45.103Z,21.42
2023-11-18T11:31:39.338Z,19.48
2023-11-18T11:34:17.621Z,14.50
2023-11-18T11:36:52.359Z,14.23
2023-11-18T11:39:27.227Z,11.75
2023-11-18T11:41:57.724Z,19.10
2023-11-18T11:44:31.223Z,17.77
2023-11-18T11:47:02.110Z,14.88
2023-11-18T11:50:12.982Z,13.38
2023-11-18T11:53:00.187Z,9.98
2023-11-18T11:56:07.619Z,13.95
2023-11-18T11:58:40.515Z,13.32
2023-11-18T12:01:38.691Z,14.55
2023-11-18T12:04:11.800Z,13.75
2023-11-18T12:06:45.415Z,16.60
2023-11-18T12:09:21.090Z,11.68
2023-11-18T12:11:50.336Z,12.95
2023-11-18T12:14:21.764Z,14.23
2023-11-18T12:17:10.165Z,14.05
2023-11-18T12:19:49.301Z,15.57
2023-11-18T12:22:42.207Z,15.55
2023-11-18T12:25:16.532Z,15.52
2023-11-18T12:27:53.628Z,16.65
2023-11-18T12:30:28.336Z,14.82
2023-11-18T12:33:10.143Z,15.45
2023-11-18T12:35:52.400Z,14.25
2023-11-18T12:38:58.651Z,16.80
2023-11-18T12:41:39.526Z,17.10
2023-11-18T12:44:19.486Z,15.43
2023-11-18T12:47:15.774Z,15.32
2023-11-18T12:49:55.491Z,13.38
2023-11-18T12:52:24.579Z,14.75
2023-11-18T12:54:59.935Z,12.85
2023-11-18T12:57:32.444Z,13.85
2023-11-18T13:00:05.096Z,15.97
2023-11-18T13:02:34.184Z,16.97
2023-11-18T13:05:10.345Z,15.57
2023-11-18T13:07:39.118Z,12.80
2023-11-18T13:10:08.860Z,11.82
2023-11-18T13:12:37.622Z,13.52
2023-11-18T13:15:09.360Z,12.52
2023-11-18T13:17:37.631Z,15.65
2023-11-18T13:20:16.115Z,11.65
2023-11-18T13:22:48.226Z,9.90
2023-11-18T13:25:18.576Z,10.25
2023-11-18T13:27:47.645Z,13.20
2023-11-18T13:30:18.437Z,12.07
2023-11-18T13:32:47.413Z,11.88
2023-11-18T13:35:20.124Z,10.65
2023-11-18T13:37:50.327Z,13.00
2023-11-18T13:40:21.912Z,17.42
2023-11-18T13:43:01.814Z,11.32
2023-11-18T13:45:36.387Z,8.70
2023-11-18T13:48:09.773Z,11.60
2023-11-18T13:50:41.359Z,10.65
2023-11-18T13:53:09.895Z,11.85
2023-11-18T13:55:39.840Z,6.75
2023-11-18T13:58:08.452Z,2.45
2023-11-18T14:00:37.066Z,3.20
2023-11-18T14:03:07.779Z,2.83
2023-11-18T14:05:36.928Z,1.65
2023-11-18T14:08:10.853Z,1.48
2023-11-18T14:10:41.932Z,1.10
2023-11-18T14:13:14.143Z,1.45
2023-11-18T14:15:45.271Z,0.80
2023-11-18T14:18:15.406Z,4.38
2023-11-18T14:20:43.930Z,2.53
2023-11-18T14:23:12.483Z,2.75
2023-11-18T14:25:40.920Z,3.25
2023-11-18T14:28:12.218Z,2.65
2023-11-18T14:30:43.095Z,2.33
2023-11-18T14:33:11.280Z,3.25
2023-11-18T14:35:41.355Z,3.10
2023-11-18T14:38:09.813Z,2.75
2023-11-18T14:40:39.190Z,4.07
2023-11-18T14:43:08.332Z,3.28
2023-11-18T14:45:37.463Z,2.80
2023-11-18T14:48:06.493Z,2.75
2023-11-18T14:50:36.233Z,1.73
2023-11-18T14:53:05.050Z,2.45
2023-11-18T14:55:38.851Z,3.97
2023-11-18T14:58:08.132Z,2.70
2023-11-18T15:00:39.002Z,2.53
2023-11-18T15:03:07.703Z,2.60
2023-11-18T15:05:36.589Z,2.33
2023-11-18T15:08:10.383Z,4.68
2023-11-18T15:10:38.551Z,5.55
2023-11-18T15:13:06.699Z,3.80
2023-11-18T15:15:37.986Z,2.95
2023-11-18T15:18:09.976Z,6.38
2023-11-18T15:20:39.950Z,4.28
2023-11-18T15:23:08.601Z,6.75
2023-11-18T15:25:37.087Z,9.80
2023-11-18T15:28:06.512Z,8.05
2023-11-18T15:30:34.649Z,14.35
2023-11-18T15:33:03.184Z,13.68
2023-11-18T15:35:31.761Z,13.00
2023-11-18T15:37:59.967Z,8.10
2023-11-18T15:40:29.453Z,11.38
2023-11-18T15:42:57.847Z,10.50
2023-11-18T15:45:25.953Z,6.85
2023-11-18T15:47:54.281Z,5.35
2023-11-18T15:50:22.745Z,6.72
2023-11-18T15:52:55.037Z,10.55
2023-11-18T15:55:25.467Z,10.43
2023-11-18T15:57:54.821Z,18.42
2023-11-18T16:00:28.454Z,13.27
2023-11-18T16:03:02.133Z,11.40
2023-11-18T16:05:35.900Z,8.75
2023-11-18T16:08:08.272Z,8.10
2023-11-18T16:10:38.706Z,12.60
2023-11-18T16:13:07.723Z,13.02
2023-11-18T16:15:37.005Z,10.52
2023-11-18T16:18:05.798Z,15.15
2023-11-18T16:20:34.796Z,20.05
2023-11-18T16:23:07.110Z,22.30
2023-11-18T16:25:36.787Z,13.90
2023-11-18T16:28:10.420Z,25.38
2023-11-18T16:30:39.087Z,30.00
2023-11-18T16:33:08.924Z,25.20
2023-11-18T16:35:37.619Z,23.77
2023-11-18T16:38:06.709Z,18.15
2023-11-18T16:40:35.664Z,20.15
2023-11-18T16:43:04.552Z,20.15
2023-11-18T16:45:33.098Z,31.20
2023-11-18T16:48:01.414Z,25.48
2023-11-18T16:50:30.729Z,22.95
2023-11-18T16:53:00.954Z,18.98
2023-11-18T16:55:32.835Z,14.90
2023-11-18T17:00:33.511Z,20.15
2023-11-18T17:03:01.835Z,18.52
2023-11-18T17:05:31.231Z,21.35
2023-11-18T17:08:01.900Z,28.00
2023-11-18T17:13:04.287Z,24.17
2023-11-18T17:15:32.742Z,18.75
2023-11-18T17:18:04.910Z,19.92
2023-11-18T17:20:33.815Z,16.65
2023-11-18T17:23:03.726Z,11.18
2023-11-18T17:25:32.317Z,13.13
2023-11-18T17:28:03.514Z,15.15
2023-11-18T17:30:36.180Z,13.77
2023-11-18T17:33:05.134Z,15.43
2023-11-18T17:35:33.352Z,18.20
2023-11-18T17:38:05.989Z,13.50
2023-11-18T17:40:34.351Z,14.68
2023-11-18T17:43:02.531Z,8.38
2023-11-18T17:45:30.737Z,12.85
2023-11-18T17:47:59.173Z,13.43
2023-11-18T17:50:27.959Z,14.02
2023-11-18T17:52:58.379Z,10.38
2023-11-18T17:55:28.710Z,10.27
2023-11-18T17:58:00.728Z,13.05
2023-11-18T18:00:28.943Z,13.52
2023-11-18T18:02:57.041Z,16.95
2023-11-18T18:05:25.358Z,14.88
2023-11-18T18:07:53.907Z,16.95
2023-11-18T18:10:25.716Z,21.88
2023-11-18T18:12:55.352Z,18.67
2023-11-18T18:15:27.238Z,18.73
2023-11-18T18:17:55.457Z,19.38
2023-11-18T18:20:23.795Z,18.10
2023-11-18T18:22:51.950Z,16.48
2023-11-18T18:25:20.195Z,18.17
2023-11-18T18:27:51.313Z,16.00
2023-11-18T18:30:19.903Z,14.02
2023-11-18T18:32:50.094Z,12.63
2023-11-18T18:35:18.682Z,15.95
2023-11-18T18:37:46.849Z,19.63
2023-11-18T18:40:15.833Z,18.27
2023-11-18T18:42:44.103Z,21.17
2023-11-18T18:45:12.864Z,19.08
2023-11-18T18:47:41.115Z,19.98
2023-11-18T18:50:10.006Z,22.73
2023-11-18T18:52:38.423Z,18.75
2023-11-18T18:55:10.303Z,24.10
2023-11-18T18:57:38.580Z,28.23
2023-11-18T19:00:07.968Z,33.60
2023-11-18T19:02:36.185Z,32.53
2023-11-18T19:05:04.703Z,29.85
2023-11-18T19:07:33.367Z,33.40
2023-11-18T19:10:01.886Z,29.40
2023-11-18T19:12:30.211Z,24.42
2023-11-18T19:14:58.364Z,29.80
2023-11-18T19:17:26.804Z,25.45
2023-11-18T19:19:55.136Z,33.55
2023-11-18T19:22:26.224Z,31.10
2023-11-18T19:24:54.459Z,25.08
2023-11-18T19:27:22.561Z,23.33
2023-11-18T19:29:50.658Z,22.67
2023-11-18T19:32:18.810Z,19.80
2023-11-18T19:34:46.906Z,17.77
2023-11-18T19:37:15.021Z,24.27
2023-11-18T19:39:44.388Z,20.00
2023-11-18T19:42:13.047Z,21.25
2023-11-18T19:44:41.401Z,21.30
2023-11-18T19:47:09.601Z,19.40
2023-11-18T19:49:38.528Z,16.95
2023-11-18T19:52:08.232Z,19.05
2023-11-18T19:54:36.827Z,18.25
2023-11-18T19:57:05.123Z,17.85
2023-11-18T19:59:33.855Z,21.58
2023-11-18T20:02:02.454Z,20.77
2023-11-18T20:04:34.449Z,16.35
2023-11-18T20:07:04.014Z,15.30
2023-11-18T20:09:35.259Z,19.13
2023-11-18T20:12:05.178Z,16.50
2023-11-18T20:14:34.473Z,20.75
2023-11-18T20:17:02.890Z,18.58
2023-11-18T20:19:33.676Z,19.63
2023-11-18T20:22:02.043Z,19.02
2023-11-18T20:24:30.414Z,18.60
2023-11-18T20:26:59.105Z,15.68
2023-11-18T20:29:27.753Z,22.10
2023-11-18T20:31:56.286Z,23.02
2023-11-18T20:34:24.361Z,22.65
2023-11-18T20:36:52.513Z,29.50
2023-11-18T20:39:20.632Z,25.60
2023-11-18T20:41:49.841Z,31.77
2023-11-18T20:44:21.722Z,26.77
2023-11-18T20:46:51.147Z,27.33
2023-11-18T20:49:19.338Z,22.45
2023-11-18T20:51:47.437Z,23.20
2023-11-18T20:54:15.540Z,21.45
2023-11-18T20:56:43.737Z,22.05
2023-11-18T20:59:11.940Z,20.05
2023-11-18T21:01:40.071Z,19.20
2023-11-18T21:04:11.366Z,15.73
2023-11-18T21:06:39.631Z,17.92
2023-11-18T21:09:08.216Z,15.95
2023-11-18T21:11:36.382Z,15.57
2023-11-18T21:14:05.382Z,14.98
2023-11-18T21:16:33.608Z,16.55
2023-11-18T21:19:04.305Z,14.48
2023-11-18T21:21:32.451Z,15.13
2023-11-18T21:24:04.272Z,21.45
2023-11-18T21:26:32.677Z,18.77
2023-11-18T21:29:00.897Z,21.15
2023-11-18T21:31:31.974Z,17.38
2023-11-18T21:34:05.563Z,20.48
2023-11-18T21:36:33.736Z,22.92
2023-11-18T21:39:01.852Z,15.63
2023-11-18T21:41:30.003Z,17.10
2023-11-18T21:43:59.229Z,21.23
2023-11-18T21:46:28.357Z,17.50
2023-11-18T21:48:56.571Z,16.98
2023-11-18T21:51:25.446Z,18.45
2023-11-18T21:53:53.639Z,16.15
2023-11-18T21:56:22.787Z,18.67
2023-11-18T21:58:51.075Z,22.50
2023-11-18T22:01:20.091Z,17.77
2023-11-18T22:03:49.769Z,20.73
2023-11-18T22:06:17.938Z,17.13
2023-11-18T22:08:46.130Z,18.02
2023-11-18T22:11:17.189Z,14.38
2023-11-18T22:13:49.281Z,14.20
2023-11-18T22:16:17.435Z,17.65
2023-11-18T22:18:50.496Z,20.33
2023-11-18T22:21:18.767Z,20.98
2023-11-18T22:23:47.103Z,17.23
2023-11-18T22:26:15.251Z,22.08
2023-11-18T22:28:43.335Z,20.83
2023-11-18T22:31:11.444Z,22.00
2023-11-18T22:33:39.620Z,19.60
2023-11-18T22:36:08.797Z,19.63
2023-11-18T22:38:38.930Z,21.90
2023-11-18T22:41:10.485Z,18.05
2023-11-18T22:43:38.932Z,15.75
2023-11-18T22:46:11.997Z,20.83
2023-11-18T22:51:12.231Z,16.48
2023-11-18T22:53:43.785Z,19.13
2023-11-18T22:56:12.265Z,20.52
2023-11-18T22:58:40.694Z,16.85
2023-11-18T23:01:12.443Z,17.67
2023-11-18T23:03:40.628Z,31.70
2023-11-18T23:06:20.751Z,42.47
2023-11-18T23:08:49.784Z,34.10
2023-11-18T23:11:18.786Z,31.90
2023-11-18T23:13:47.817Z,31.10
2023-11-18T23:16:20.606Z,30.30
2023-11-18T23:18:51.064Z,29.77
2023-11-18T23:21:19.267Z,26.60
2023-11-18T23:23:48.727Z,23.65
2023-11-18T23:26:16.846Z,27.40
2023-11-18T23:28:45.007Z,27.88
2023-11-18T23:31:13.741Z,28.65
2023-11-18T23:33:42.880Z,24.23
2023-11-18T23:36:11.443Z,26.63
2023-11-18T23:38:39.994Z,24.67
2023-11-18T23:41:08.251Z,18.90
2023-11-18T23:43:37.314Z,27.88
2023-11-18T23:46:06.903Z,21.00
2023-11-18T23:48:35.312Z,21.17
2023-11-18T23:51:04.268Z,22.10
2023-11-18T23:53:33.704Z,23.08
2023-11-18T23:56:02.480Z,18.65
2023-11-18T23:58:35.016Z,15.63
